Solvang, California
Current Conditions -  °F | °C
As of 4:15 PM on Friday 21 Nov 2014 (Local Time) from KIZA Reporting Station
Clear Clear  
Wind Chill: 68°   Ceiling: Unl
Heat Index: 68°   Visibility: 10mi
Dew Point: 37°   Wind: 13mph
Humidity: 33%   Direction: 310°NW
Pressure: 29.99"   Gusts: 20mph
Location:  34.59°N, 120.14°W
Report Text: KIZA 220015Z AUTO 31011G17KT 10SM CLR 20/03 A2999 RMK AO2
Loading
Personal Weather Stations






























Interactive Weather Map New forecast layout! Learn more

10-Day Weather Forecast

Advertisements
Track Severe Weather on mobile